sensor_id;sensor_type;location;lat;lon;timestamp;temperature;humidity
25732;DHT22;13585;50.864;4.406;2023-07-30T00:01:12;27.30;53.20
25732;DHT22;13585;50.864;4.406;2023-07-30T00:03:38;27.30;53.10
25732;DHT22;13585;50.864;4.406;2023-07-30T00:06:03;27.30;53.20
25732;DHT22;13585;50.864;4.406;2023-07-30T00:08:29;27.30;53.10
25732;DHT22;13585;50.864;4.406;2023-07-30T00:10:57;27.20;53.10
25732;DHT22;13585;50.864;4.406;2023-07-30T00:13:23;27.30;53.10
25732;DHT22;13585;50.864;4.406;2023-07-30T00:15:48;27.30;53.10
25732;DHT22;13585;50.864;4.406;2023-07-30T00:18:14;27.30;53.10
25732;DHT22;13585;50.864;4.406;2023-07-30T00:20:41;27.30;53.10
25732;DHT22;13585;50.864;4.406;2023-07-30T00:23:06;27.30;53.00
25732;DHT22;13585;50.864;4.406;2023-07-30T00:25:32;27.30;53.10
25732;DHT22;13585;50.864;4.406;2023-07-30T00:27:58;27.30;53.00
25732;DHT22;13585;50.864;4.406;2023-07-30T00:30:24;27.30;53.00
25732;DHT22;13585;50.864;4.406;2023-07-30T00:32:49;27.30;53.00
25732;DHT22;13585;50.864;4.406;2023-07-30T00:35:15;27.30;53.00
25732;DHT22;13585;50.864;4.406;2023-07-30T00:37:41;27.20;52.90
25732;DHT22;13585;50.864;4.406;2023-07-30T00:40:06;27.30;52.90
25732;DHT22;13585;50.864;4.406;2023-07-30T00:42:32;27.30;52.90
25732;DHT22;13585;50.864;4.406;2023-07-30T00:44:58;27.30;52.90
25732;DHT22;13585;50.864;4.406;2023-07-30T00:47:24;27.30;52.90
25732;DHT22;13585;50.864;4.406;2023-07-30T00:49:50;27.30;52.90
25732;DHT22;13585;50.864;4.406;2023-07-30T00:52:18;27.30;52.80
25732;DHT22;13585;50.864;4.406;2023-07-30T00:54:45;27.30;52.80
25732;DHT22;13585;50.864;4.406;2023-07-30T00:57:11;27.20;52.70
25732;DHT22;13585;50.864;4.406;2023-07-30T00:59:37;27.30;52.80
25732;DHT22;13585;50.864;4.406;2023-07-30T01:02:04;27.30;52.80
25732;DHT22;13585;50.864;4.406;2023-07-30T01:04:30;27.20;52.70
25732;DHT22;13585;50.864;4.406;2023-07-30T01:06:56;27.20;52.70
25732;DHT22;13585;50.864;4.406;2023-07-30T01:09:22;27.30;52.80
25732;DHT22;13585;50.864;4.406;2023-07-30T01:11:48;27.20;52.80
25732;DHT22;13585;50.864;4.406;2023-07-30T01:14:14;27.20;52.70
25732;DHT22;13585;50.864;4.406;2023-07-30T01:16:42;27.20;52.70
25732;DHT22;13585;50.864;4.406;2023-07-30T01:19:07;27.20;52.70
25732;DHT22;13585;50.864;4.406;2023-07-30T01:21:34;27.20;52.70
25732;DHT22;13585;50.864;4.406;2023-07-30T01:23:59;27.20;52.70
25732;DHT22;13585;50.864;4.406;2023-07-30T01:29:51;27.20;52.70
25732;DHT22;13585;50.864;4.406;2023-07-30T01:32:24;27.20;52.80
25732;DHT22;13585;50.864;4.406;2023-07-30T01:34:52;27.30;52.60
25732;DHT22;13585;50.864;4.406;2023-07-30T01:37:19;27.20;52.60
25732;DHT22;13585;50.864;4.406;2023-07-30T01:39:46;27.20;52.50
25732;DHT22;13585;50.864;4.406;2023-07-30T01:42:16;27.20;52.50
25732;DHT22;13585;50.864;4.406;2023-07-30T01:44:41;27.20;52.60
25732;DHT22;13585;50.864;4.406;2023-07-30T01:47:07;27.20;52.70
25732;DHT22;13585;50.864;4.406;2023-07-30T01:49:33;27.20;52.60
25732;DHT22;13585;50.864;4.406;2023-07-30T01:51:59;27.20;52.60
25732;DHT22;13585;50.864;4.406;2023-07-30T01:54:24;27.20;52.60
25732;DHT22;13585;50.864;4.406;2023-07-30T01:56:50;27.20;52.60
25732;DHT22;13585;50.864;4.406;2023-07-30T01:59:16;27.20;52.60
25732;DHT22;13585;50.864;4.406;2023-07-30T02:01:42;27.20;52.60
25732;DHT22;13585;50.864;4.406;2023-07-30T02:04:08;27.20;52.60
25732;DHT22;13585;50.864;4.406;2023-07-30T02:06:34;27.20;52.60
25732;DHT22;13585;50.864;4.406;2023-07-30T02:08:59;27.20;52.60
25732;DHT22;13585;50.864;4.406;2023-07-30T02:11:25;27.20;52.60
25732;DHT22;13585;50.864;4.406;2023-07-30T02:13:50;27.20;52.60
25732;DHT22;13585;50.864;4.406;2023-07-30T02:16:16;27.20;52.60
25732;DHT22;13585;50.864;4.406;2023-07-30T02:18:42;27.20;52.60
25732;DHT22;13585;50.864;4.406;2023-07-30T02:21:08;27.20;52.60
25732;DHT22;13585;50.864;4.406;2023-07-30T02:23:33;27.10;52.50
25732;DHT22;13585;50.864;4.406;2023-07-30T02:25:59;27.20;52.60
25732;DHT22;13585;50.864;4.406;2023-07-30T02:28:24;27.20;52.60
25732;DHT22;13585;50.864;4.406;2023-07-30T02:30:50;27.20;52.60
25732;DHT22;13585;50.864;4.406;2023-07-30T02:33:15;27.20;52.60
25732;DHT22;13585;50.864;4.406;2023-07-30T02:35:43;27.20;52.60
25732;DHT22;13585;50.864;4.406;2023-07-30T02:38:09;27.20;52.60
25732;DHT22;13585;50.864;4.406;2023-07-30T02:40:34;27.20;52.50
25732;DHT22;13585;50.864;4.406;2023-07-30T02:43:00;27.20;52.60
25732;DHT22;13585;50.864;4.406;2023-07-30T02:45:26;27.20;52.50
25732;DHT22;13585;50.864;4.406;2023-07-30T02:47:51;27.20;53.20
25732;DHT22;13585;50.864;4.406;2023-07-30T02:50:17;27.20;52.50
25732;DHT22;13585;50.864;4.406;2023-07-30T02:52:43;27.20;52.50
25732;DHT22;13585;50.864;4.406;2023-07-30T02:55:09;27.20;52.50
25732;DHT22;13585;50.864;4.406;2023-07-30T02:57:34;27.20;52.50
25732;DHT22;13585;50.864;4.406;2023-07-30T03:00:00;27.20;52.50
25732;DHT22;13585;50.864;4.406;2023-07-30T03:02:28;27.10;52.50
25732;DHT22;13585;50.864;4.406;2023-07-30T03:04:54;27.10;52.50
25732;DHT22;13585;50.864;4.406;2023-07-30T03:07:19;27.10;52.50
25732;DHT22;13585;50.864;4.406;2023-07-30T03:09:45;27.10;52.50
25732;DHT22;13585;50.864;4.406;2023-07-30T03:12:11;27.10;52.50
25732;DHT22;13585;50.864;4.406;2023-07-30T03:14:37;27.10;52.50
25732;DHT22;13585;50.864;4.406;2023-07-30T03:17:02;27.20;52.50
25732;DHT22;13585;50.864;4.406;2023-07-30T03:19:30;27.10;52.50
25732;DHT22;13585;50.864;4.406;2023-07-30T03:21:55;27.10;52.50
25732;DHT22;13585;50.864;4.406;2023-07-30T03:24:21;27.20;52.50
25732;DHT22;13585;50.864;4.406;2023-07-30T03:26:47;27.10;52.50
25732;DHT22;13585;50.864;4.406;2023-07-30T03:29:12;27.10;52.50
25732;DHT22;13585;50.864;4.406;2023-07-30T03:31:38;27.10;52.50
25732;DHT22;13585;50.864;4.406;2023-07-30T03:34:03;27.10;52.50
25732;DHT22;13585;50.864;4.406;2023-07-30T03:36:29;27.10;52.50
25732;DHT22;13585;50.864;4.406;2023-07-30T03:38:55;27.10;52.50
25732;DHT22;13585;50.864;4.406;2023-07-30T03:41:20;27.10;52.50
25732;DHT22;13585;50.864;4.406;2023-07-30T03:43:46;27.10;52.50
25732;DHT22;13585;50.864;4.406;2023-07-30T03:46:11;27.10;52.50
25732;DHT22;13585;50.864;4.406;2023-07-30T03:48:37;27.10;52.50
25732;DHT22;13585;50.864;4.406;2023-07-30T03:51:03;27.10;52.50
25732;DHT22;13585;50.864;4.406;2023-07-30T03:53:29;27.10;52.50
25732;DHT22;13585;50.864;4.406;2023-07-30T03:55:55;27.10;52.50
25732;DHT22;13585;50.864;4.406;2023-07-30T03:58:20;27.10;52.50
25732;DHT22;13585;50.864;4.406;2023-07-30T04:00:46;27.10;52.50
25732;DHT22;13585;50.864;4.406;2023-07-30T04:03:11;27.00;52.40
25732;DHT22;13585;50.864;4.406;2023-07-30T04:05:37;27.00;52.50
25732;DHT22;13585;50.864;4.406;2023-07-30T04:08:03;27.00;52.40
25732;DHT22;13585;50.864;4.406;2023-07-30T04:10:28;27.00;52.40
25732;DHT22;13585;50.864;4.406;2023-07-30T04:12:54;27.00;52.40
25732;DHT22;13585;50.864;4.406;2023-07-30T04:15:19;27.00;52.40
25732;DHT22;13585;50.864;4.406;2023-07-30T04:17:45;27.10;52.50
25732;DHT22;13585;50.864;4.406;2023-07-30T04:20:11;27.10;52.50
25732;DHT22;13585;50.864;4.406;2023-07-30T04:22:36;27.00;52.40
25732;DHT22;13585;50.864;4.406;2023-07-30T04:25:02;27.10;52.50
25732;DHT22;13585;50.864;4.406;2023-07-30T04:27:28;27.10;52.40
25732;DHT22;13585;50.864;4.406;2023-07-30T04:29:54;27.10;52.40
25732;DHT22;13585;50.864;4.406;2023-07-30T04:32:20;27.00;52.40
25732;DHT22;13585;50.864;4.406;2023-07-30T04:34:45;27.00;52.30
25732;DHT22;13585;50.864;4.406;2023-07-30T04:37:11;27.00;52.40
25732;DHT22;13585;50.864;4.406;2023-07-30T04:39:37;27.10;52.40
25732;DHT22;13585;50.864;4.406;2023-07-30T04:42:03;27.00;52.30
25732;DHT22;13585;50.864;4.406;2023-07-30T04:44:28;27.00;52.40
25732;DHT22;13585;50.864;4.406;2023-07-30T04:46:54;27.00;52.40
25732;DHT22;13585;50.864;4.406;2023-07-30T04:49:20;27.00;52.40
25732;DHT22;13585;50.864;4.406;2023-07-30T04:51:45;27.00;52.40
25732;DHT22;13585;50.864;4.406;2023-07-30T04:54:11;27.00;52.40
25732;DHT22;13585;50.864;4.406;2023-07-30T04:56:37;27.00;52.40
25732;DHT22;13585;50.864;4.406;2023-07-30T04:59:03;27.00;52.40
25732;DHT22;13585;50.864;4.406;2023-07-30T05:01:32;27.00;52.50
25732;DHT22;13585;50.864;4.406;2023-07-30T05:03:58;27.00;52.50
25732;DHT22;13585;50.864;4.406;2023-07-30T05:06:23;27.00;52.50
25732;DHT22;13585;50.864;4.406;2023-07-30T05:08:49;27.00;52.50
25732;DHT22;13585;50.864;4.406;2023-07-30T05:11:14;27.00;52.40
25732;DHT22;13585;50.864;4.406;2023-07-30T05:13:40;27.00;52.40
25732;DHT22;13585;50.864;4.406;2023-07-30T05:16:06;27.00;52.40
25732;DHT22;13585;50.864;4.406;2023-07-30T05:18:32;27.00;52.40
25732;DHT22;13585;50.864;4.406;2023-07-30T05:20:57;27.00;52.40
25732;DHT22;13585;50.864;4.406;2023-07-30T05:23:23;27.00;52.40
25732;DHT22;13585;50.864;4.406;2023-07-30T05:25:49;27.00;52.40
25732;DHT22;13585;50.864;4.406;2023-07-30T05:28:14;27.00;52.40
25732;DHT22;13585;50.864;4.406;2023-07-30T05:30:40;27.00;52.40
25732;DHT22;13585;50.864;4.406;2023-07-30T05:33:05;27.00;52.40
25732;DHT22;13585;50.864;4.406;2023-07-30T05:35:31;27.00;52.40
25732;DHT22;13585;50.864;4.406;2023-07-30T05:37:57;27.00;52.40
25732;DHT22;13585;50.864;4.406;2023-07-30T05:40:22;27.00;52.50
25732;DHT22;13585;50.864;4.406;2023-07-30T05:42:48;27.00;52.40
25732;DHT22;13585;50.864;4.406;2023-07-30T05:45:14;27.00;52.40
25732;DHT22;13585;50.864;4.406;2023-07-30T05:47:39;27.00;52.40
25732;DHT22;13585;50.864;4.406;2023-07-30T05:50:52;27.00;52.40
25732;DHT22;13585;50.864;4.406;2023-07-30T05:52:55;27.00;52.40
25732;DHT22;13585;50.864;4.406;2023-07-30T05:55:21;27.00;52.30
25732;DHT22;13585;50.864;4.406;2023-07-30T05:57:46;27.00;52.40
25732;DHT22;13585;50.864;4.406;2023-07-30T06:00:12;27.00;52.40
25732;DHT22;13585;50.864;4.406;2023-07-30T06:02:38;27.00;52.40
25732;DHT22;13585;50.864;4.406;2023-07-30T06:05:04;27.00;52.40
25732;DHT22;13585;50.864;4.406;2023-07-30T06:07:30;27.00;52.40
25732;DHT22;13585;50.864;4.406;2023-07-30T06:09:55;27.00;52.40
25732;DHT22;13585;50.864;4.406;2023-07-30T06:12:21;27.00;52.40
25732;DHT22;13585;50.864;4.406;2023-07-30T06:14:46;27.00;52.30
25732;DHT22;13585;50.864;4.406;2023-07-30T06:17:12;27.00;52.30
25732;DHT22;13585;50.864;4.406;2023-07-30T06:19:38;27.00;52.40
25732;DHT22;13585;50.864;4.406;2023-07-30T06:22:04;27.00;52.30
25732;DHT22;13585;50.864;4.406;2023-07-30T06:24:29;27.00;52.40
25732;DHT22;13585;50.864;4.406;2023-07-30T06:26:55;27.00;53.00
25732;DHT22;13585;50.864;4.406;2023-07-30T06:29:20;27.10;52.40
25732;DHT22;13585;50.864;4.406;2023-07-30T06:31:46;27.00;52.40
25732;DHT22;13585;50.864;4.406;2023-07-30T06:34:12;27.00;52.40
25732;DHT22;13585;50.864;4.406;2023-07-30T06:36:37;27.00;52.40
25732;DHT22;13585;50.864;4.406;2023-07-30T06:39:03;27.00;52.40
25732;DHT22;13585;50.864;4.406;2023-07-30T06:41:29;27.00;52.40
25732;DHT22;13585;50.864;4.406;2023-07-30T06:43:54;27.00;52.40
25732;DHT22;13585;50.864;4.406;2023-07-30T06:46:20;27.00;52.40
25732;DHT22;13585;50.864;4.406;2023-07-30T06:48:45;27.00;52.40
25732;DHT22;13585;50.864;4.406;2023-07-30T06:51:11;27.00;52.40
25732;DHT22;13585;50.864;4.406;2023-07-30T06:53:38;27.00;52.40
25732;DHT22;13585;50.864;4.406;2023-07-30T06:56:04;27.00;52.40
25732;DHT22;13585;50.864;4.406;2023-07-30T06:58:29;27.00;52.40
25732;DHT22;13585;50.864;4.406;2023-07-30T07:00:55;27.00;52.50
25732;DHT22;13585;50.864;4.406;2023-07-30T07:03:20;27.00;52.50
25732;DHT22;13585;50.864;4.406;2023-07-30T07:05:53;27.00;52.60
25732;DHT22;13585;50.864;4.406;2023-07-30T07:08:20;27.00;52.70
25732;DHT22;13585;50.864;4.406;2023-07-30T07:10:46;27.00;52.70
25732;DHT22;13585;50.864;4.406;2023-07-30T07:13:11;27.00;52.70
25732;DHT22;13585;50.864;4.406;2023-07-30T07:15:40;27.00;52.70
25732;DHT22;13585;50.864;4.406;2023-07-30T07:18:06;27.00;52.80
25732;DHT22;13585;50.864;4.406;2023-07-30T07:20:32;27.00;52.90
25732;DHT22;13585;50.864;4.406;2023-07-30T07:22:58;27.00;52.90
25732;DHT22;13585;50.864;4.406;2023-07-30T07:25:23;27.00;52.90
25732;DHT22;13585;50.864;4.406;2023-07-30T07:27:49;27.00;52.90
25732;DHT22;13585;50.864;4.406;2023-07-30T07:30:15;27.00;53.00
25732;DHT22;13585;50.864;4.406;2023-07-30T07:32:40;26.90;53.00
25732;DHT22;13585;50.864;4.406;2023-07-30T07:35:06;27.00;53.00
25732;DHT22;13585;50.864;4.406;2023-07-30T07:37:32;26.90;53.00
25732;DHT22;13585;50.864;4.406;2023-07-30T07:39:58;26.90;53.10
25732;DHT22;13585;50.864;4.406;2023-07-30T07:42:24;26.90;53.10
25732;DHT22;13585;50.864;4.406;2023-07-30T07:44:50;26.90;53.20
25732;DHT22;13585;50.864;4.406;2023-07-30T07:47:15;26.90;53.20
25732;DHT22;13585;50.864;4.406;2023-07-30T07:49:41;26.90;53.30
25732;DHT22;13585;50.864;4.406;2023-07-30T07:52:07;26.90;53.30
25732;DHT22;13585;50.864;4.406;2023-07-30T07:54:33;26.90;53.30
25732;DHT22;13585;50.864;4.406;2023-07-30T07:56:59;26.90;53.30
25732;DHT22;13585;50.864;4.406;2023-07-30T07:59:24;26.90;53.30
25732;DHT22;13585;50.864;4.406;2023-07-30T08:01:50;26.90;53.40
25732;DHT22;13585;50.864;4.406;2023-07-30T08:04:16;26.90;53.40
25732;DHT22;13585;50.864;4.406;2023-07-30T08:06:41;26.90;53.40
25732;DHT22;13585;50.864;4.406;2023-07-30T08:09:07;26.90;53.40
25732;DHT22;13585;50.864;4.406;2023-07-30T08:11:33;26.80;53.40
25732;DHT22;13585;50.864;4.406;2023-07-30T08:13:59;26.80;53.40
25732;DHT22;13585;50.864;4.406;2023-07-30T08:16:25;26.80;53.40
25732;DHT22;13585;50.864;4.406;2023-07-30T08:18:50;26.80;53.40
25732;DHT22;13585;50.864;4.406;2023-07-30T08:21:16;26.80;53.40
25732;DHT22;13585;50.864;4.406;2023-07-30T08:23:43;26.80;53.40
25732;DHT22;13585;50.864;4.406;2023-07-30T08:26:09;26.80;53.40
25732;DHT22;13585;50.864;4.406;2023-07-30T08:28:34;26.80;53.40
25732;DHT22;13585;50.864;4.406;2023-07-30T08:31:01;26.80;53.40
25732;DHT22;13585;50.864;4.406;2023-07-30T08:33:27;26.80;53.40
25732;DHT22;13585;50.864;4.406;2023-07-30T08:35:56;26.80;53.50
25732;DHT22;13585;50.864;4.406;2023-07-30T08:38:22;26.80;53.50
25732;DHT22;13585;50.864;4.406;2023-07-30T08:40:48;26.80;53.50
25732;DHT22;13585;50.864;4.406;2023-07-30T08:43:14;26.80;53.50
25732;DHT22;13585;50.864;4.406;2023-07-30T08:45:43;26.80;53.50
25732;DHT22;13585;50.864;4.406;2023-07-30T08:48:08;26.80;53.60
25732;DHT22;13585;50.864;4.406;2023-07-30T08:50:35;26.80;53.50
25732;DHT22;13585;50.864;4.406;2023-07-30T08:53:02;26.80;53.60
25732;DHT22;13585;50.864;4.406;2023-07-30T08:55:29;26.80;53.60
25732;DHT22;13585;50.864;4.406;2023-07-30T08:57:57;26.80;53.60
25732;DHT22;13585;50.864;4.406;2023-07-30T09:00:25;26.80;53.80
25732;DHT22;13585;50.864;4.406;2023-07-30T09:02:58;26.80;53.70
25732;DHT22;13585;50.864;4.406;2023-07-30T09:05:25;26.80;53.70
25732;DHT22;13585;50.864;4.406;2023-07-30T09:07:50;26.90;53.80
25732;DHT22;13585;50.864;4.406;2023-07-30T09:10:16;26.90;53.80
25732;DHT22;13585;50.864;4.406;2023-07-30T09:12:42;26.90;54.10
25732;DHT22;13585;50.864;4.406;2023-07-30T09:15:08;26.90;53.80
25732;DHT22;13585;50.864;4.406;2023-07-30T09:17:34;26.90;53.80
25732;DHT22;13585;50.864;4.406;2023-07-30T09:20:03;26.90;53.80
25732;DHT22;13585;50.864;4.406;2023-07-30T09:22:30;26.90;53.80
25732;DHT22;13585;50.864;4.406;2023-07-30T09:25:01;26.90;53.80
25732;DHT22;13585;50.864;4.406;2023-07-30T09:27:28;26.90;53.90
25732;DHT22;13585;50.864;4.406;2023-07-30T09:29:55;26.90;53.90
25732;DHT22;13585;50.864;4.406;2023-07-30T09:32:26;26.90;53.90
25732;DHT22;13585;50.864;4.406;2023-07-30T09:34:52;26.90;54.00
25732;DHT22;13585;50.864;4.406;2023-07-30T09:37:18;26.90;54.00
25732;DHT22;13585;50.864;4.406;2023-07-30T09:39:43;26.90;54.00
25732;DHT22;13585;50.864;4.406;2023-07-30T09:42:12;26.90;54.00
25732;DHT22;13585;50.864;4.406;2023-07-30T09:44:38;26.90;54.00
25732;DHT22;13585;50.864;4.406;2023-07-30T09:47:05;26.90;54.00
25732;DHT22;13585;50.864;4.406;2023-07-30T09:49:35;26.90;54.10
25732;DHT22;13585;50.864;4.406;2023-07-30T09:52:03;26.90;54.00
25732;DHT22;13585;50.864;4.406;2023-07-30T09:54:29;26.90;54.10
25732;DHT22;13585;50.864;4.406;2023-07-30T09:56:56;26.90;54.10
25732;DHT22;13585;50.864;4.406;2023-07-30T09:59:22;26.90;54.10
25732;DHT22;13585;50.864;4.406;2023-07-30T10:01:49;26.90;54.10
25732;DHT22;13585;50.864;4.406;2023-07-30T10:04:18;26.90;54.10
25732;DHT22;13585;50.864;4.406;2023-07-30T10:07:06;26.90;54.00
25732;DHT22;13585;50.864;4.406;2023-07-30T10:09:37;26.90;54.10
25732;DHT22;13585;50.864;4.406;2023-07-30T10:12:12;26.90;54.00
25732;DHT22;13585;50.864;4.406;2023-07-30T10:14:39;26.90;54.00
25732;DHT22;13585;50.864;4.406;2023-07-30T10:17:08;26.90;54.00
25732;DHT22;13585;50.864;4.406;2023-07-30T10:19:34;26.90;54.10
25732;DHT22;13585;50.864;4.406;2023-07-30T10:24:38;26.80;54.20
25732;DHT22;13585;50.864;4.406;2023-07-30T10:27:08;26.90;54.30
25732;DHT22;13585;50.864;4.406;2023-07-30T10:29:35;26.80;54.30
25732;DHT22;13585;50.864;4.406;2023-07-30T10:32:02;26.80;54.30
25732;DHT22;13585;50.864;4.406;2023-07-30T10:34:44;26.80;54.40
25732;DHT22;13585;50.864;4.406;2023-07-30T10:37:10;26.80;54.50
25732;DHT22;13585;50.864;4.406;2023-07-30T10:39:35;26.90;54.30
25732;DHT22;13585;50.864;4.406;2023-07-30T10:42:01;26.90;54.20
25732;DHT22;13585;50.864;4.406;2023-07-30T10:44:35;26.90;54.40
25732;DHT22;13585;50.864;4.406;2023-07-30T10:47:02;26.80;54.50
25732;DHT22;13585;50.864;4.406;2023-07-30T10:49:38;26.90;54.60
25732;DHT22;13585;50.864;4.406;2023-07-30T10:52:04;26.80;54.60
25732;DHT22;13585;50.864;4.406;2023-07-30T10:54:36;26.80;54.60
25732;DHT22;13585;50.864;4.406;2023-07-30T10:57:05;26.80;54.70
25732;DHT22;13585;50.864;4.406;2023-07-30T10:59:38;26.90;54.70
25732;DHT22;13585;50.864;4.406;2023-07-30T11:02:04;26.80;55.30
25732;DHT22;13585;50.864;4.406;2023-07-30T11:07:52;26.80;54.70
25732;DHT22;13585;50.864;4.406;2023-07-30T11:10:17;26.90;54.50
25732;DHT22;13585;50.864;4.406;2023-07-30T11:12:43;26.90;54.50
25732;DHT22;13585;50.864;4.406;2023-07-30T11:15:09;26.80;54.50
25732;DHT22;13585;50.864;4.406;2023-07-30T11:17:37;26.90;54.50
25732;DHT22;13585;50.864;4.406;2023-07-30T11:20:03;26.90;54.50
25732;DHT22;13585;50.864;4.406;2023-07-30T11:22:30;26.90;54.60
25732;DHT22;13585;50.864;4.406;2023-07-30T11:24:57;26.90;54.70
25732;DHT22;13585;50.864;4.406;2023-07-30T11:27:23;26.90;54.80
25732;DHT22;13585;50.864;4.406;2023-07-30T11:29:55;26.90;54.90
25732;DHT22;13585;50.864;4.406;2023-07-30T11:32:21;26.90;55.00
25732;DHT22;13585;50.864;4.406;2023-07-30T11:34:53;26.90;55.10
25732;DHT22;13585;50.864;4.406;2023-07-30T11:37:20;26.90;55.10
25732;DHT22;13585;50.864;4.406;2023-07-30T11:39:47;26.90;55.20
25732;DHT22;13585;50.864;4.406;2023-07-30T11:42:13;26.90;55.20
25732;DHT22;13585;50.864;4.406;2023-07-30T11:44:39;26.90;55.20
25732;DHT22;13585;50.864;4.406;2023-07-30T11:47:05;26.90;55.20
25732;DHT22;13585;50.864;4.406;2023-07-30T11:49:32;27.00;55.20
25732;DHT22;13585;50.864;4.406;2023-07-30T11:52:05;27.00;55.20
25732;DHT22;13585;50.864;4.406;2023-07-30T11:54:31;27.00;55.20
25732;DHT22;13585;50.864;4.406;2023-07-30T11:56:58;27.00;55.10
25732;DHT22;13585;50.864;4.406;2023-07-30T11:59:23;27.00;55.10
25732;DHT22;13585;50.864;4.406;2023-07-30T12:01:49;27.00;55.10
25732;DHT22;13585;50.864;4.406;2023-07-30T12:04:15;27.00;55.10
25732;DHT22;13585;50.864;4.406;2023-07-30T12:06:48;27.00;55.00
25732;DHT22;13585;50.864;4.406;2023-07-30T12:09:19;27.00;55.00
25732;DHT22;13585;50.864;4.406;2023-07-30T12:11:50;27.00;55.00
25732;DHT22;13585;50.864;4.406;2023-07-30T12:14:16;27.10;55.00
25732;DHT22;13585;50.864;4.406;2023-07-30T12:16:42;27.10;55.00
25732;DHT22;13585;50.864;4.406;2023-07-30T12:19:08;27.10;55.00
25732;DHT22;13585;50.864;4.406;2023-07-30T12:21:33;27.10;54.90
25732;DHT22;13585;50.864;4.406;2023-07-30T12:23:59;27.10;54.90
25732;DHT22;13585;50.864;4.406;2023-07-30T12:26:25;27.10;54.90
25732;DHT22;13585;50.864;4.406;2023-07-30T12:28:50;27.10;54.90
25732;DHT22;13585;50.864;4.406;2023-07-30T12:31:16;27.10;54.90
25732;DHT22;13585;50.864;4.406;2023-07-30T12:33:43;27.10;54.80
25732;DHT22;13585;50.864;4.406;2023-07-30T12:36:08;27.10;54.80
25732;DHT22;13585;50.864;4.406;2023-07-30T12:38:34;27.10;54.80
25732;DHT22;13585;50.864;4.406;2023-07-30T12:41:00;27.10;54.80
25732;DHT22;13585;50.864;4.406;2023-07-30T12:43:25;27.10;54.80
25732;DHT22;13585;50.864;4.406;2023-07-30T12:45:51;27.10;54.70
25732;DHT22;13585;50.864;4.406;2023-07-30T12:48:16;27.20;54.80
25732;DHT22;13585;50.864;4.406;2023-07-30T12:50:42;27.10;54.70
25732;DHT22;13585;50.864;4.406;2023-07-30T12:53:08;27.20;54.80
25732;DHT22;13585;50.864;4.406;2023-07-30T12:55:33;27.10;54.70
25732;DHT22;13585;50.864;4.406;2023-07-30T12:57:59;27.10;54.70
25732;DHT22;13585;50.864;4.406;2023-07-30T13:00:25;27.10;54.60
25732;DHT22;13585;50.864;4.406;2023-07-30T13:02:50;27.10;54.60
25732;DHT22;13585;50.864;4.406;2023-07-30T13:05:20;27.20;54.70
25732;DHT22;13585;50.864;4.406;2023-07-30T13:07:46;27.10;54.50
25732;DHT22;13585;50.864;4.406;2023-07-30T13:10:12;27.10;54.60
25732;DHT22;13585;50.864;4.406;2023-07-30T13:12:38;27.10;54.50
25732;DHT22;13585;50.864;4.406;2023-07-30T13:15:04;27.20;54.50
25732;DHT22;13585;50.864;4.406;2023-07-30T13:17:29;27.20;54.50
25732;DHT22;13585;50.864;4.406;2023-07-30T13:19:55;27.20;54.50
25732;DHT22;13585;50.864;4.406;2023-07-30T13:22:21;27.20;54.50
25732;DHT22;13585;50.864;4.406;2023-07-30T13:24:47;27.20;54.40
25732;DHT22;13585;50.864;4.406;2023-07-30T13:27:12;27.30;54.40
25732;DHT22;13585;50.864;4.406;2023-07-30T13:29:38;27.30;54.40
25732;DHT22;13585;50.864;4.406;2023-07-30T13:32:04;27.30;54.30
25732;DHT22;13585;50.864;4.406;2023-07-30T13:34:31;27.30;54.30
25732;DHT22;13585;50.864;4.406;2023-07-30T13:36:57;27.30;54.30
25732;DHT22;13585;50.864;4.406;2023-07-30T13:39:23;27.30;54.20
25732;DHT22;13585;50.864;4.406;2023-07-30T13:41:48;27.30;54.20
25732;DHT22;13585;50.864;4.406;2023-07-30T13:44:14;27.30;54.20
25732;DHT22;13585;50.864;4.406;2023-07-30T13:46:39;27.30;54.10
25732;DHT22;13585;50.864;4.406;2023-07-30T13:49:06;27.30;54.00
25732;DHT22;13585;50.864;4.406;2023-07-30T13:51:32;27.30;54.00
25732;DHT22;13585;50.864;4.406;2023-07-30T13:53:59;27.40;54.00
25732;DHT22;13585;50.864;4.406;2023-07-30T13:56:26;27.40;54.00
25732;DHT22;13585;50.864;4.406;2023-07-30T13:58:51;27.40;54.00
25732;DHT22;13585;50.864;4.406;2023-07-30T14:01:17;27.40;53.90
25732;DHT22;13585;50.864;4.406;2023-07-30T14:03:43;27.30;53.80
25732;DHT22;13585;50.864;4.406;2023-07-30T14:06:09;27.30;53.80
25732;DHT22;13585;50.864;4.406;2023-07-30T14:08:35;27.40;53.90
25732;DHT22;13585;50.864;4.406;2023-07-30T14:11:00;27.40;53.80
25732;DHT22;13585;50.864;4.406;2023-07-30T14:13:26;27.30;53.80
25732;DHT22;13585;50.864;4.406;2023-07-30T14:15:52;27.40;53.80
25732;DHT22;13585;50.864;4.406;2023-07-30T14:18:18;27.40;53.80
25732;DHT22;13585;50.864;4.406;2023-07-30T14:20:43;27.40;53.70
25732;DHT22;13585;50.864;4.406;2023-07-30T14:23:09;27.40;53.80
25732;DHT22;13585;50.864;4.406;2023-07-30T14:25:37;27.40;53.80
25732;DHT22;13585;50.864;4.406;2023-07-30T14:28:02;27.30;53.70
25732;DHT22;13585;50.864;4.406;2023-07-30T14:30:28;27.40;53.80
25732;DHT22;13585;50.864;4.406;2023-07-30T14:32:54;27.40;53.80
25732;DHT22;13585;50.864;4.406;2023-07-30T14:35:20;27.30;53.70
25732;DHT22;13585;50.864;4.406;2023-07-30T14:37:45;27.40;53.80
25732;DHT22;13585;50.864;4.406;2023-07-30T14:40:11;27.40;53.80
25732;DHT22;13585;50.864;4.406;2023-07-30T14:42:37;27.40;53.80
25732;DHT22;13585;50.864;4.406;2023-07-30T14:45:03;27.40;53.80
25732;DHT22;13585;50.864;4.406;2023-07-30T14:47:29;27.30;53.80
25732;DHT22;13585;50.864;4.406;2023-07-30T14:49:55;27.30;53.80
25732;DHT22;13585;50.864;4.406;2023-07-30T14:52:20;27.40;53.90
25732;DHT22;13585;50.864;4.406;2023-07-30T14:54:46;27.30;53.80
25732;DHT22;13585;50.864;4.406;2023-07-30T14:57:11;27.30;53.80
25732;DHT22;13585;50.864;4.406;2023-07-30T14:59:37;27.30;53.80
25732;DHT22;13585;50.864;4.406;2023-07-30T15:02:03;27.30;53.80
25732;DHT22;13585;50.864;4.406;2023-07-30T15:04:28;27.30;53.80
25732;DHT22;13585;50.864;4.406;2023-07-30T15:06:56;27.20;53.80
25732;DHT22;13585;50.864;4.406;2023-07-30T15:09:21;27.30;53.80
25732;DHT22;13585;50.864;4.406;2023-07-30T15:11:47;27.30;53.80
25732;DHT22;13585;50.864;4.406;2023-07-30T15:14:12;27.30;53.60
25732;DHT22;13585;50.864;4.406;2023-07-30T15:16:38;27.20;53.50
25732;DHT22;13585;50.864;4.406;2023-07-30T15:19:04;27.30;53.50
25732;DHT22;13585;50.864;4.406;2023-07-30T15:21:30;27.20;53.50
25732;DHT22;13585;50.864;4.406;2023-07-30T15:23:56;27.30;53.50
25732;DHT22;13585;50.864;4.406;2023-07-30T15:26:23;27.20;53.50
25732;DHT22;13585;50.864;4.406;2023-07-30T15:28:49;27.20;53.60
25732;DHT22;13585;50.864;4.406;2023-07-30T15:31:14;27.30;53.70
25732;DHT22;13585;50.864;4.406;2023-07-30T15:33:40;27.30;53.60